sensor_id;sensor_type;location;lat;lon;timestamp;P1;durP1;ratioP1;P2;durP2;ratioP2
57744;SDS011;58941;50.168;4.410;2024-01-30T00:00:34;2.90;;;2.60;;
57744;SDS011;58941;50.168;4.410;2024-01-30T00:02:59;3.28;;;2.70;;
57744;SDS011;58941;50.168;4.410;2024-01-30T00:05:25;3.25;;;2.60;;
57744;SDS011;58941;50.168;4.410;2024-01-30T00:07:50;3.15;;;2.40;;
57744;SDS011;58941;50.168;4.410;2024-01-30T00:10:16;3.13;;;2.50;;
57744;SDS011;58941;50.168;4.410;2024-01-30T00:12:41;3.97;;;2.50;;
57744;SDS011;58941;50.168;4.410;2024-01-30T00:15:07;2.67;;;2.42;;
57744;SDS011;58941;50.168;4.410;2024-01-30T00:17:35;3.30;;;2.90;;
57744;SDS011;58941;50.168;4.410;2024-01-30T00:20:02;3.75;;;2.80;;
57744;SDS011;58941;50.168;4.410;2024-01-30T00:22:31;3.22;;;2.40;;
57744;SDS011;58941;50.168;4.410;2024-01-30T00:24:56;3.90;;;2.65;;
57744;SDS011;58941;50.168;4.410;2024-01-30T00:27:22;3.72;;;2.75;;
57744;SDS011;58941;50.168;4.410;2024-01-30T00:29:47;2.78;;;2.20;;
57744;SDS011;58941;50.168;4.410;2024-01-30T00:32:13;3.10;;;2.70;;
57744;SDS011;58941;50.168;4.410;2024-01-30T00:34:38;3.63;;;2.65;;
57744;SDS011;58941;50.168;4.410;2024-01-30T00:37:04;3.28;;;2.70;;
57744;SDS011;58941;50.168;4.410;2024-01-30T00:39:29;3.42;;;2.83;;
57744;SDS011;58941;50.168;4.410;2024-01-30T00:41:55;4.20;;;2.75;;
57744;SDS011;58941;50.168;4.410;2024-01-30T00:44:20;3.10;;;2.80;;
57744;SDS011;58941;50.168;4.410;2024-01-30T00:46:46;3.05;;;2.75;;
57744;SDS011;58941;50.168;4.410;2024-01-30T00:49:11;2.88;;;2.58;;
57744;SDS011;58941;50.168;4.410;2024-01-30T00:51:37;2.80;;;2.50;;
57744;SDS011;58941;50.168;4.410;2024-01-30T00:54:02;2.75;;;2.47;;
57744;SDS011;58941;50.168;4.410;2024-01-30T00:56:28;3.15;;;2.83;;
57744;SDS011;58941;50.168;4.410;2024-01-30T00:58:54;3.63;;;2.45;;
57744;SDS011;58941;50.168;4.410;2024-01-30T01:01:19;2.90;;;2.60;;
57744;SDS011;58941;50.168;4.410;2024-01-30T01:03:45;3.47;;;2.47;;
57744;SDS011;58941;50.168;4.410;2024-01-30T01:06:10;3.22;;;2.90;;
57744;SDS011;58941;50.168;4.410;2024-01-30T01:08:36;4.40;;;2.95;;
57744;SDS011;58941;50.168;4.410;2024-01-30T01:11:01;3.17;;;2.60;;
57744;SDS011;58941;50.168;4.410;2024-01-30T01:13:28;3.30;;;2.80;;
57744;SDS011;58941;50.168;4.410;2024-01-30T01:15:54;3.67;;;2.60;;
57744;SDS011;58941;50.168;4.410;2024-01-30T01:18:20;4.13;;;2.80;;
57744;SDS011;58941;50.168;4.410;2024-01-30T01:20:45;3.25;;;2.70;;
57744;SDS011;58941;50.168;4.410;2024-01-30T01:23:11;3.70;;;2.50;;
57744;SDS011;58941;50.168;4.410;2024-01-30T01:25:36;3.80;;;2.90;;
57744;SDS011;58941;50.168;4.410;2024-01-30T01:28:02;2.88;;;2.58;;
57744;SDS011;58941;50.168;4.410;2024-01-30T01:30:27;2.60;;;2.40;;
57744;SDS011;58941;50.168;4.410;2024-01-30T01:32:54;2.88;;;2.28;;
57744;SDS011;58941;50.168;4.410;2024-01-30T01:35:21;3.03;;;2.30;;
57744;SDS011;58941;50.168;4.410;2024-01-30T01:37:48;3.28;;;2.70;;
57744;SDS011;58941;50.168;4.410;2024-01-30T01:40:20;3.63;;;2.60;;
57744;SDS011;58941;50.168;4.410;2024-01-30T01:42:46;3.22;;;2.53;;
57744;SDS011;58941;50.168;4.410;2024-01-30T01:45:11;3.10;;;2.47;;
57744;SDS011;58941;50.168;4.410;2024-01-30T01:47:37;2.97;;;2.50;;
57744;SDS011;58941;50.168;4.410;2024-01-30T01:50:02;2.60;;;2.40;;
57744;SDS011;58941;50.168;4.410;2024-01-30T01:52:28;3.28;;;2.55;;
57744;SDS011;58941;50.168;4.410;2024-01-30T01:54:54;3.47;;;2.53;;
57744;SDS011;58941;50.168;4.410;2024-01-30T01:57:19;3.42;;;2.28;;
57744;SDS011;58941;50.168;4.410;2024-01-30T01:59:45;2.75;;;2.50;;
57744;SDS011;58941;50.168;4.410;2024-01-30T02:02:11;3.33;;;2.72;;
57744;SDS011;58941;50.168;4.410;2024-01-30T02:04:37;3.92;;;2.95;;
57744;SDS011;58941;50.168;4.410;2024-01-30T02:07:02;3.30;;;2.42;;
57744;SDS011;58941;50.168;4.410;2024-01-30T02:09:28;3.95;;;2.78;;
57744;SDS011;58941;50.168;4.410;2024-01-30T02:11:53;3.60;;;2.50;;
57744;SDS011;58941;50.168;4.410;2024-01-30T02:14:18;3.35;;;2.55;;
57744;SDS011;58941;50.168;4.410;2024-01-30T02:16:44;2.78;;;2.38;;
57744;SDS011;58941;50.168;4.410;2024-01-30T02:19:09;3.15;;;2.55;;
57744;SDS011;58941;50.168;4.410;2024-01-30T02:21:35;4.38;;;2.75;;
57744;SDS011;58941;50.168;4.410;2024-01-30T02:24:00;2.50;;;2.25;;
57744;SDS011;58941;50.168;4.410;2024-01-30T02:26:26;2.92;;;2.63;;
57744;SDS011;58941;50.168;4.410;2024-01-30T02:28:52;2.60;;;2.40;;
57744;SDS011;58941;50.168;4.410;2024-01-30T02:31:17;3.80;;;2.63;;
57744;SDS011;58941;50.168;4.410;2024-01-30T02:33:42;2.83;;;2.22;;
57744;SDS011;58941;50.168;4.410;2024-01-30T02:36:08;3.08;;;2.22;;
57744;SDS011;58941;50.168;4.410;2024-01-30T02:38:34;2.67;;;2.40;;
57744;SDS011;58941;50.168;4.410;2024-01-30T02:40:59;3.20;;;2.30;;
57744;SDS011;58941;50.168;4.410;2024-01-30T02:43:24;3.60;;;2.80;;
57744;SDS011;58941;50.168;4.410;2024-01-30T02:45:50;3.90;;;2.67;;
57744;SDS011;58941;50.168;4.410;2024-01-30T02:48:15;2.28;;;2.03;;
57744;SDS011;58941;50.168;4.410;2024-01-30T02:50:41;3.50;;;2.60;;
57744;SDS011;58941;50.168;4.410;2024-01-30T02:53:06;2.67;;;2.30;;
57744;SDS011;58941;50.168;4.410;2024-01-30T02:55:32;2.65;;;2.28;;
57744;SDS011;58941;50.168;4.410;2024-01-30T02:57:58;3.60;;;2.63;;
57744;SDS011;58941;50.168;4.410;2024-01-30T03:00:23;2.85;;;2.42;;
57744;SDS011;58941;50.168;4.410;2024-01-30T03:02:49;3.20;;;2.90;;
57744;SDS011;58941;50.168;4.410;2024-01-30T03:05:14;3.67;;;2.70;;
57744;SDS011;58941;50.168;4.410;2024-01-30T03:07:40;3.72;;;2.50;;
57744;SDS011;58941;50.168;4.410;2024-01-30T03:10:05;3.63;;;2.80;;
57744;SDS011;58941;50.168;4.410;2024-01-30T03:12:31;2.95;;;2.25;;
57744;SDS011;58941;50.168;4.410;2024-01-30T03:14:56;3.20;;;2.55;;
57744;SDS011;58941;50.168;4.410;2024-01-30T03:17:22;2.67;;;2.42;;
57744;SDS011;58941;50.168;4.410;2024-01-30T03:19:49;3.63;;;2.67;;
57744;SDS011;58941;50.168;4.410;2024-01-30T03:22:15;4.28;;;2.63;;
57744;SDS011;58941;50.168;4.410;2024-01-30T03:24:40;3.08;;;2.40;;
57744;SDS011;58941;50.168;4.410;2024-01-30T03:27:06;3.10;;;2.80;;
57744;SDS011;58941;50.168;4.410;2024-01-30T03:29:31;2.78;;;2.50;;
57744;SDS011;58941;50.168;4.410;2024-01-30T03:31:58;2.58;;;2.35;;
57744;SDS011;58941;50.168;4.410;2024-01-30T03:34:23;2.95;;;2.47;;
57744;SDS011;58941;50.168;4.410;2024-01-30T03:36:48;2.72;;;2.33;;
57744;SDS011;58941;50.168;4.410;2024-01-30T03:39:14;3.97;;;2.35;;
57744;SDS011;58941;50.168;4.410;2024-01-30T03:41:42;2.78;;;2.42;;
57744;SDS011;58941;50.168;4.410;2024-01-30T03:44:07;2.88;;;2.45;;
57744;SDS011;58941;50.168;4.410;2024-01-30T03:46:33;3.38;;;2.58;;
57744;SDS011;58941;50.168;4.410;2024-01-30T03:48:58;2.78;;;2.47;;
57744;SDS011;58941;50.168;4.410;2024-01-30T03:51:23;3.63;;;2.58;;
57744;SDS011;58941;50.168;4.410;2024-01-30T03:53:49;3.75;;;2.63;;
57744;SDS011;58941;50.168;4.410;2024-01-30T03:56:14;2.78;;;2.50;;
57744;SDS011;58941;50.168;4.410;2024-01-30T03:58:40;2.90;;;2.42;;
57744;SDS011;58941;50.168;4.410;2024-01-30T04:01:05;4.38;;;2.47;;
57744;SDS011;58941;50.168;4.410;2024-01-30T04:03:31;2.75;;;2.30;;
57744;SDS011;58941;50.168;4.410;2024-01-30T04:05:56;3.00;;;2.55;;
57744;SDS011;58941;50.168;4.410;2024-01-30T04:08:22;2.33;;;2.13;;
57744;SDS011;58941;50.168;4.410;2024-01-30T04:10:47;2.70;;;2.33;;
57744;SDS011;58941;50.168;4.410;2024-01-30T04:13:13;2.70;;;2.50;;
57744;SDS011;58941;50.168;4.410;2024-01-30T04:15:38;2.78;;;2.30;;
57744;SDS011;58941;50.168;4.410;2024-01-30T04:18:04;2.88;;;2.55;;
57744;SDS011;58941;50.168;4.410;2024-01-30T04:20:30;2.72;;;2.20;;
57744;SDS011;58941;50.168;4.410;2024-01-30T04:22:55;2.90;;;2.50;;
57744;SDS011;58941;50.168;4.410;2024-01-30T04:25:21;2.58;;;2.38;;
57744;SDS011;58941;50.168;4.410;2024-01-30T04:27:46;2.65;;;2.35;;
57744;SDS011;58941;50.168;4.410;2024-01-30T04:30:12;4.38;;;2.50;;
57744;SDS011;58941;50.168;4.410;2024-01-30T04:32:37;2.50;;;2.17;;
57744;SDS011;58941;50.168;4.410;2024-01-30T04:35:03;2.95;;;2.13;;
57744;SDS011;58941;50.168;4.410;2024-01-30T04:37:28;2.97;;;2.60;;
57744;SDS011;58941;50.168;4.410;2024-01-30T04:39:54;3.55;;;2.45;;
57744;SDS011;58941;50.168;4.410;2024-01-30T04:42:19;2.60;;;2.40;;
57744;SDS011;58941;50.168;4.410;2024-01-30T04:44:45;2.67;;;2.22;;
57744;SDS011;58941;50.168;4.410;2024-01-30T04:47:10;2.67;;;2.47;;
57744;SDS011;58941;50.168;4.410;2024-01-30T04:49:40;2.38;;;2.10;;
57744;SDS011;58941;50.168;4.410;2024-01-30T04:52:06;2.95;;;2.55;;
57744;SDS011;58941;50.168;4.410;2024-01-30T04:54:31;3.10;;;2.45;;
57744;SDS011;58941;50.168;4.410;2024-01-30T04:56:57;3.35;;;2.65;;
57744;SDS011;58941;50.168;4.410;2024-01-30T04:59:22;2.50;;;2.30;;
57744;SDS011;58941;50.168;4.410;2024-01-30T05:01:48;2.65;;;2.35;;
57744;SDS011;58941;50.168;4.410;2024-01-30T05:04:13;2.97;;;2.47;;
57744;SDS011;58941;50.168;4.410;2024-01-30T05:06:39;2.88;;;2.33;;
57744;SDS011;58941;50.168;4.410;2024-01-30T05:09:04;2.40;;;2.20;;
57744;SDS011;58941;50.168;4.410;2024-01-30T05:11:30;2.92;;;2.17;;
57744;SDS011;58941;50.168;4.410;2024-01-30T05:13:56;3.15;;;2.50;;
57744;SDS011;58941;50.168;4.410;2024-01-30T05:16:21;4.15;;;2.88;;
57744;SDS011;58941;50.168;4.410;2024-01-30T05:18:47;2.83;;;2.45;;
57744;SDS011;58941;50.168;4.410;2024-01-30T05:21:13;3.50;;;2.45;;
57744;SDS011;58941;50.168;4.410;2024-01-30T05:23:38;3.10;;;2.50;;
57744;SDS011;58941;50.168;4.410;2024-01-30T05:26:04;2.60;;;2.35;;
57744;SDS011;58941;50.168;4.410;2024-01-30T05:28:30;2.40;;;2.20;;
57744;SDS011;58941;50.168;4.410;2024-01-30T05:30:55;2.65;;;2.38;;
57744;SDS011;58941;50.168;4.410;2024-01-30T05:33:21;3.08;;;2.28;;
57744;SDS011;58941;50.168;4.410;2024-01-30T05:35:47;2.60;;;2.38;;
57744;SDS011;58941;50.168;4.410;2024-01-30T05:38:12;2.63;;;2.20;;
57744;SDS011;58941;50.168;4.410;2024-01-30T05:40:37;2.70;;;2.03;;
57744;SDS011;58941;50.168;4.410;2024-01-30T05:43:03;2.78;;;2.58;;
57744;SDS011;58941;50.168;4.410;2024-01-30T05:45:28;2.70;;;2.30;;
57744;SDS011;58941;50.168;4.410;2024-01-30T05:47:54;2.88;;;2.53;;
57744;SDS011;58941;50.168;4.410;2024-01-30T05:50:19;3.30;;;2.95;;
57744;SDS011;58941;50.168;4.410;2024-01-30T05:52:48;3.28;;;2.75;;
57744;SDS011;58941;50.168;4.410;2024-01-30T05:55:13;3.03;;;2.67;;
57744;SDS011;58941;50.168;4.410;2024-01-30T05:57:39;3.55;;;2.70;;
57744;SDS011;58941;50.168;4.410;2024-01-30T06:00:06;3.83;;;2.40;;
57744;SDS011;58941;50.168;4.410;2024-01-30T06:02:32;3.78;;;2.70;;
57744;SDS011;58941;50.168;4.410;2024-01-30T06:04:58;3.55;;;2.45;;
57744;SDS011;58941;50.168;4.410;2024-01-30T06:07:23;3.88;;;2.50;;
57744;SDS011;58941;50.168;4.410;2024-01-30T06:09:49;3.45;;;2.60;;
57744;SDS011;58941;50.168;4.410;2024-01-30T06:12:14;3.42;;;2.50;;
57744;SDS011;58941;50.168;4.410;2024-01-30T06:14:40;2.72;;;2.20;;
57744;SDS011;58941;50.168;4.410;2024-01-30T06:17:07;3.33;;;2.50;;
57744;SDS011;58941;50.168;4.410;2024-01-30T06:19:33;3.15;;;2.50;;
57744;SDS011;58941;50.168;4.410;2024-01-30T06:21:58;2.58;;;2.33;;
57744;SDS011;58941;50.168;4.410;2024-01-30T06:24:24;2.50;;;2.30;;
57744;SDS011;58941;50.168;4.410;2024-01-30T06:26:49;3.10;;;2.72;;
57744;SDS011;58941;50.168;4.410;2024-01-30T06:29:15;2.53;;;2.22;;
57744;SDS011;58941;50.168;4.410;2024-01-30T06:31:41;2.60;;;2.40;;
57744;SDS011;58941;50.168;4.410;2024-01-30T06:34:08;2.92;;;2.40;;
57744;SDS011;58941;50.168;4.410;2024-01-30T06:36:33;3.40;;;2.42;;
57744;SDS011;58941;50.168;4.410;2024-01-30T06:38:59;2.33;;;2.08;;
57744;SDS011;58941;50.168;4.410;2024-01-30T06:41:25;3.58;;;2.70;;
57744;SDS011;58941;50.168;4.410;2024-01-30T06:43:51;3.10;;;1.85;;
57744;SDS011;58941;50.168;4.410;2024-01-30T06:46:16;3.45;;;2.50;;
57744;SDS011;58941;50.168;4.410;2024-01-30T06:48:42;4.47;;;2.40;;
57744;SDS011;58941;50.168;4.410;2024-01-30T06:51:10;2.60;;;2.10;;
57744;SDS011;58941;50.168;4.410;2024-01-30T06:53:36;2.53;;;2.33;;
57744;SDS011;58941;50.168;4.410;2024-01-30T06:56:01;4.82;;;2.70;;
57744;SDS011;58941;50.168;4.410;2024-01-30T06:58:26;4.63;;;2.38;;
57744;SDS011;58941;50.168;4.410;2024-01-30T07:00:52;3.85;;;2.13;;
57744;SDS011;58941;50.168;4.410;2024-01-30T07:03:17;2.53;;;2.33;;
57744;SDS011;58941;50.168;4.410;2024-01-30T07:05:43;2.55;;;2.25;;
57744;SDS011;58941;50.168;4.410;2024-01-30T07:08:09;4.68;;;2.17;;
57744;SDS011;58941;50.168;4.410;2024-01-30T07:10:35;3.70;;;2.53;;
57744;SDS011;58941;50.168;4.410;2024-01-30T07:13:00;2.75;;;2.42;;
57744;SDS011;58941;50.168;4.410;2024-01-30T07:15:26;2.60;;;2.35;;
57744;SDS011;58941;50.168;4.410;2024-01-30T07:17:51;4.15;;;2.50;;
57744;SDS011;58941;50.168;4.410;2024-01-30T07:20:17;2.92;;;2.55;;
57744;SDS011;58941;50.168;4.410;2024-01-30T07:22:45;2.75;;;2.38;;
57744;SDS011;58941;50.168;4.410;2024-01-30T07:25:11;3.67;;;2.50;;
57744;SDS011;58941;50.168;4.410;2024-01-30T07:27:36;3.22;;;2.70;;
57744;SDS011;58941;50.168;4.410;2024-01-30T07:30:02;2.38;;;2.17;;
57744;SDS011;58941;50.168;4.410;2024-01-30T07:32:28;3.53;;;2.60;;
57744;SDS011;58941;50.168;4.410;2024-01-30T07:34:53;4.93;;;2.65;;
57744;SDS011;58941;50.168;4.410;2024-01-30T07:37:19;2.63;;;2.28;;
57744;SDS011;58941;50.168;4.410;2024-01-30T07:39:44;3.15;;;2.33;;
57744;SDS011;58941;50.168;4.410;2024-01-30T07:42:10;2.42;;;2.20;;
57744;SDS011;58941;50.168;4.410;2024-01-30T07:44:35;2.72;;;2.38;;
57744;SDS011;58941;50.168;4.410;2024-01-30T07:47:01;3.28;;;2.35;;
57744;SDS011;58941;50.168;4.410;2024-01-30T07:49:28;2.60;;;2.40;;
57744;SDS011;58941;50.168;4.410;2024-01-30T07:51:53;3.25;;;2.40;;
57744;SDS011;58941;50.168;4.410;2024-01-30T07:54:19;3.10;;;2.33;;
57744;SDS011;58941;50.168;4.410;2024-01-30T07:56:44;2.58;;;2.33;;
57744;SDS011;58941;50.168;4.410;2024-01-30T07:59:10;4.43;;;2.72;;
57744;SDS011;58941;50.168;4.410;2024-01-30T08:01:36;3.25;;;2.13;;
57744;SDS011;58941;50.168;4.410;2024-01-30T08:04:02;3.33;;;2.58;;
57744;SDS011;58941;50.168;4.410;2024-01-30T08:06:27;3.30;;;2.60;;
57744;SDS011;58941;50.168;4.410;2024-01-30T08:08:53;3.78;;;2.60;;
57744;SDS011;58941;50.168;4.410;2024-01-30T08:11:21;3.40;;;2.42;;
57744;SDS011;58941;50.168;4.410;2024-01-30T08:13:54;3.17;;;2.42;;
57744;SDS011;58941;50.168;4.410;2024-01-30T08:16:20;4.07;;;3.00;;
57744;SDS011;58941;50.168;4.410;2024-01-30T08:18:45;3.15;;;2.38;;
57744;SDS011;58941;50.168;4.410;2024-01-30T08:21:11;3.42;;;2.78;;
57744;SDS011;58941;50.168;4.410;2024-01-30T08:23:38;3.90;;;2.88;;
57744;SDS011;58941;50.168;4.410;2024-01-30T08:26:03;3.67;;;2.80;;
57744;SDS011;58941;50.168;4.410;2024-01-30T08:28:29;3.65;;;2.65;;
57744;SDS011;58941;50.168;4.410;2024-01-30T08:30:54;2.85;;;2.47;;
57744;SDS011;58941;50.168;4.410;2024-01-30T08:33:20;3.20;;;2.70;;
57744;SDS011;58941;50.168;4.410;2024-01-30T08:35:46;2.67;;;2.45;;
57744;SDS011;58941;50.168;4.410;2024-01-30T08:38:11;3.00;;;2.70;;
57744;SDS011;58941;50.168;4.410;2024-01-30T08:40:37;3.00;;;2.70;;
57744;SDS011;58941;50.168;4.410;2024-01-30T08:43:03;5.05;;;2.60;;
57744;SDS011;58941;50.168;4.410;2024-01-30T08:45:29;3.78;;;2.58;;
57744;SDS011;58941;50.168;4.410;2024-01-30T08:47:55;3.38;;;2.50;;
57744;SDS011;58941;50.168;4.410;2024-01-30T08:50:21;3.00;;;2.67;;
57744;SDS011;58941;50.168;4.410;2024-01-30T08:52:47;4.13;;;2.78;;
57744;SDS011;58941;50.168;4.410;2024-01-30T08:55:12;3.17;;;2.53;;
57744;SDS011;58941;50.168;4.410;2024-01-30T08:57:38;3.95;;;2.75;;
57744;SDS011;58941;50.168;4.410;2024-01-30T09:00:04;4.28;;;2.85;;
57744;SDS011;58941;50.168;4.410;2024-01-30T09:02:32;4.18;;;2.53;;
57744;SDS011;58941;50.168;4.410;2024-01-30T09:04:57;4.03;;;2.85;;
57744;SDS011;58941;50.168;4.410;2024-01-30T09:07:23;8.00;;;2.78;;
57744;SDS011;58941;50.168;4.410;2024-01-30T09:09:48;3.72;;;2.85;;
57744;SDS011;58941;50.168;4.410;2024-01-30T09:12:14;4.75;;;2.83;;
57744;SDS011;58941;50.168;4.410;2024-01-30T09:14:39;4.10;;;2.88;;
57744;SDS011;58941;50.168;4.410;2024-01-30T09:17:08;4.18;;;2.70;;
57744;SDS011;58941;50.168;4.410;2024-01-30T09:19:33;4.68;;;3.05;;
57744;SDS011;58941;50.168;4.410;2024-01-30T09:21:59;5.25;;;3.10;;
57744;SDS011;58941;50.168;4.410;2024-01-30T09:24:25;4.75;;;3.00;;
57744;SDS011;58941;50.168;4.410;2024-01-30T09:26:51;4.70;;;2.95;;
57744;SDS011;58941;50.168;4.410;2024-01-30T09:29:17;4.20;;;2.90;;
57744;SDS011;58941;50.168;4.410;2024-01-30T09:31:43;3.95;;;2.85;;
57744;SDS011;58941;50.168;4.410;2024-01-30T09:34:09;3.83;;;2.83;;
57744;SDS011;58941;50.168;4.410;2024-01-30T09:36:34;5.20;;;3.22;;
57744;SDS011;58941;50.168;4.410;2024-01-30T09:39:00;3.28;;;2.70;;
57744;SDS011;58941;50.168;4.410;2024-01-30T09:41:26;4.10;;;2.80;;
57744;SDS011;58941;50.168;4.410;2024-01-30T09:43:52;3.63;;;2.70;;
57744;SDS011;58941;50.168;4.410;2024-01-30T09:46:19;3.83;;;2.70;;
57744;SDS011;58941;50.168;4.410;2024-01-30T09:48:46;3.45;;;2.88;;
57744;SDS011;58941;50.168;4.410;2024-01-30T09:51:14;4.95;;;3.22;;
57744;SDS011;58941;50.168;4.410;2024-01-30T09:53:40;3.72;;;3.10;;
57744;SDS011;58941;50.168;4.410;2024-01-30T09:56:05;5.47;;;2.80;;
57744;SDS011;58941;50.168;4.410;2024-01-30T09:58:31;4.47;;;2.60;;
57744;SDS011;58941;50.168;4.410;2024-01-30T10:00:56;6.32;;;3.25;;
57744;SDS011;58941;50.168;4.410;2024-01-30T10:03:21;5.05;;;2.80;;
57744;SDS011;58941;50.168;4.410;2024-01-30T10:05:53;4.57;;;2.80;;
57744;SDS011;58941;50.168;4.410;2024-01-30T10:08:20;4.15;;;3.40;;
57744;SDS011;58941;50.168;4.410;2024-01-30T10:10:49;3.53;;;2.83;;
57744;SDS011;58941;50.168;4.410;2024-01-30T10:13:15;4.95;;;3.28;;
57744;SDS011;58941;50.168;4.410;2024-01-30T10:15:41;4.05;;;3.08;;
57744;SDS011;58941;50.168;4.410;2024-01-30T10:18:06;3.08;;;2.75;;
57744;SDS011;58941;50.168;4.410;2024-01-30T10:20:32;4.38;;;3.05;;
57744;SDS011;58941;50.168;4.410;2024-01-30T10:22:58;4.85;;;2.90;;
57744;SDS011;58941;50.168;4.410;2024-01-30T10:25:25;8.27;;;3.38;;
57744;SDS011;58941;50.168;4.410;2024-01-30T10:27:53;8.05;;;3.75;;
57744;SDS011;58941;50.168;4.410;2024-01-30T10:30:21;10.13;;;3.47;;
57744;SDS011;58941;50.168;4.410;2024-01-30T10:32:46;5.30;;;2.83;;
57744;SDS011;58941;50.168;4.410;2024-01-30T10:35:12;11.50;;;3.42;;
57744;SDS011;58941;50.168;4.410;2024-01-30T10:37:37;6.07;;;3.45;;
57744;SDS011;58941;50.168;4.410;2024-01-30T10:40:03;16.73;;;3.92;;
57744;SDS011;58941;50.168;4.410;2024-01-30T10:42:32;9.68;;;3.58;;
57744;SDS011;58941;50.168;4.410;2024-01-30T10:45:07;7.50;;;3.80;;
57744;SDS011;58941;50.168;4.410;2024-01-30T10:47:34;8.35;;;3.30;;
57744;SDS011;58941;50.168;4.410;2024-01-30T10:50:01;5.65;;;3.80;;
57744;SDS011;58941;50.168;4.410;2024-01-30T10:52:27;5.07;;;3.40;;
57744;SDS011;58941;50.168;4.410;2024-01-30T10:54:55;10.23;;;3.88;;
57744;SDS011;58941;50.168;4.410;2024-01-30T10:57:24;5.65;;;3.50;;
57744;SDS011;58941;50.168;4.410;2024-01-30T10:59:51;7.22;;;3.58;;
57744;SDS011;58941;50.168;4.410;2024-01-30T11:02:18;6.85;;;3.67;;
57744;SDS011;58941;50.168;4.410;2024-01-30T11:04:45;6.82;;;3.88;;
57744;SDS011;58941;50.168;4.410;2024-01-30T11:07:14;5.88;;;3.75;;
57744;SDS011;58941;50.168;4.410;2024-01-30T11:09:40;6.57;;;3.58;;
57744;SDS011;58941;50.168;4.410;2024-01-30T11:12:11;5.20;;;3.70;;
57744;SDS011;58941;50.168;4.410;2024-01-30T11:14:37;5.88;;;3.67;;
57744;SDS011;58941;50.168;4.410;2024-01-30T11:17:05;6.18;;;3.65;;
57744;SDS011;58941;50.168;4.410;2024-01-30T11:19:31;7.07;;;3.85;;
57744;SDS011;58941;50.168;4.410;2024-01-30T11:21:56;7.75;;;4.20;;
57744;SDS011;58941;50.168;4.410;2024-01-30T11:24:25;8.15;;;3.90;;
57744;SDS011;58941;50.168;4.410;2024-01-30T11:26:57;8.18;;;4.95;;
57744;SDS011;58941;50.168;4.410;2024-01-30T11:29:29;6.50;;;4.22;;
57744;SDS011;58941;50.168;4.410;2024-01-30T11:31:56;6.88;;;4.10;;
57744;SDS011;58941;50.168;4.410;2024-01-30T11:34:21;6.82;;;4.20;;
57744;SDS011;58941;50.168;4.410;2024-01-30T11:36:48;7.82;;;4.10;;
57744;SDS011;58941;50.168;4.410;2024-01-30T11:39:17;5.88;;;3.90;;
57744;SDS011;58941;50.168;4.410;2024-01-30T11:41:45;6.97;;;4.15;;
57744;SDS011;58941;50.168;4.410;2024-01-30T11:44:11;7.13;;;4.13;;
57744;SDS011;58941;50.168;4.410;2024-01-30T11:46:37;8.15;;;4.10;;
57744;SDS011;58941;50.168;4.410;2024-01-30T11:49:02;7.13;;;4.30;;
57744;SDS011;58941;50.168;4.410;2024-01-30T11:51:27;5.75;;;3.92;;
57744;SDS011;58941;50.168;4.410;2024-01-30T11:53:56;6.22;;;3.33;;
57744;SDS011;58941;50.168;4.410;2024-01-30T11:56:23;4.63;;;3.72;;
57744;SDS011;58941;50.168;4.410;2024-01-30T11:58:49;6.60;;;3.40;;
57744;SDS011;58941;50.168;4.410;2024-01-30T12:01:16;4.97;;;3.75;;
57744;SDS011;58941;50.168;4.410;2024-01-30T12:03:42;5.90;;;3.50;;
57744;SDS011;58941;50.168;4.410;2024-01-30T12:06:07;7.85;;;3.72;;
57744;SDS011;58941;50.168;4.410;2024-01-30T12:08:33;4.43;;;3.40;;
57744;SDS011;58941;50.168;4.410;2024-01-30T12:10:59;5.47;;;3.05;;
57744;SDS011;58941;50.168;4.410;2024-01-30T12:13:27;4.90;;;3.03;;
57744;SDS011;58941;50.168;4.410;2024-01-30T12:15:53;5.07;;;3.00;;
57744;SDS011;58941;50.168;4.410;2024-01-30T12:18:19;6.03;;;3.28;;
57744;SDS011;58941;50.168;4.410;2024-01-30T12:20:45;4.45;;;2.97;;
57744;SDS011;58941;50.168;4.410;2024-01-30T12:23:11;4.13;;;2.67;;
57744;SDS011;58941;50.168;4.410;2024-01-30T12:25:37;5.53;;;2.55;;
57744;SDS011;58941;50.168;4.410;2024-01-30T12:28:03;3.30;;;2.60;;
57744;SDS011;58941;50.168;4.410;2024-01-30T12:30:29;4.28;;;2.75;;
57744;SDS011;58941;50.168;4.410;2024-01-30T12:32:55;5.10;;;2.70;;
57744;SDS011;58941;50.168;4.410;2024-01-30T12:35:20;3.83;;;2.60;;
57744;SDS011;58941;50.168;4.410;2024-01-30T12:37:47;5.00;;;2.38;;
57744;SDS011;58941;50.168;4.410;2024-01-30T12:40:16;4.43;;;2.80;;
57744;SDS011;58941;50.168;4.410;2024-01-30T12:42:42;3.80;;;2.25;;
57744;SDS011;58941;50.168;4.410;2024-01-30T12:45:08;3.42;;;2.38;;
57744;SDS011;58941;50.168;4.410;2024-01-30T12:47:34;3.08;;;2.30;;
57744;SDS011;58941;50.168;4.410;2024-01-30T12:49:59;4.68;;;2.70;;
57744;SDS011;58941;50.168;4.410;2024-01-30T12:52:25;3.90;;;2.63;;
57744;SDS011;58941;50.168;4.410;2024-01-30T12:54:50;4.15;;;2.25;;
57744;SDS011;58941;50.168;4.410;2024-01-30T12:57:16;2.25;;;2.05;;
57744;SDS011;58941;50.168;4.410;2024-01-30T12:59:43;3.30;;;2.30;;
57744;SDS011;58941;50.168;4.410;2024-01-30T13:02:08;5.13;;;2.40;;
57744;SDS011;58941;50.168;4.410;2024-01-30T13:04:34;2.78;;;2.13;;
57744;SDS011;58941;50.168;4.410;2024-01-30T13:07:00;4.07;;;2.10;;
57744;SDS011;58941;50.168;4.410;2024-01-30T13:09:32;3.78;;;1.88;;
57744;SDS011;58941;50.168;4.410;2024-01-30T13:11:58;3.38;;;2.28;;
57744;SDS011;58941;50.168;4.410;2024-01-30T13:14:24;3.78;;;2.03;;
57744;SDS011;58941;50.168;4.410;2024-01-30T13:16:49;2.50;;;1.75;;
57744;SDS011;58941;50.168;4.410;2024-01-30T13:19:15;2.42;;;1.80;;
57744;SDS011;58941;50.168;4.410;2024-01-30T13:21:41;2.65;;;1.83;;
57744;SDS011;58941;50.168;4.410;2024-01-30T13:24:06;2.40;;;1.40;;
57744;SDS011;58941;50.168;4.410;2024-01-30T13:26:32;2.42;;;1.50;;
57744;SDS011;58941;50.168;4.410;2024-01-30T13:28:58;3.75;;;1.60;;
57744;SDS011;58941;50.168;4.410;2024-01-30T13:31:23;2.67;;;1.55;;
57744;SDS011;58941;50.168;4.410;2024-01-30T13:33:49;2.95;;;1.58;;
57744;SDS011;58941;50.168;4.410;2024-01-30T13:36:14;1.90;;;1.40;;
57744;SDS011;58941;50.168;4.410;2024-01-30T13:38:40;3.20;;;1.45;;
57744;SDS011;58941;50.168;4.410;2024-01-30T13:41:06;1.63;;;1.45;;
57744;SDS011;58941;50.168;4.410;2024-01-30T13:43:32;1.63;;;1.15;;
57744;SDS011;58941;50.168;4.410;2024-01-30T13:45:57;2.70;;;1.35;;
57744;SDS011;58941;50.168;4.410;2024-01-30T13:48:23;1.67;;;0.90;;
57744;SDS011;58941;50.168;4.410;2024-01-30T13:50:48;1.65;;;1.38;;
57744;SDS011;58941;50.168;4.410;2024-01-30T13:53:14;1.88;;;0.95;;
57744;SDS011;58941;50.168;4.410;2024-01-30T13:55:40;2.55;;;1.13;;
57744;SDS011;58941;50.168;4.410;2024-01-30T13:58:05;2.63;;;1.38;;
57744;SDS011;58941;50.168;4.410;2024-01-30T14:00:31;2.05;;;1.25;;
57744;SDS011;58941;50.168;4.410;2024-01-30T14:02:57;2.53;;;1.20;;
57744;SDS011;58941;50.168;4.410;2024-01-30T14:05:24;2.08;;;1.00;;
57744;SDS011;58941;50.168;4.410;2024-01-30T14:07:50;1.85;;;1.00;;
57744;SDS011;58941;50.168;4.410;2024-01-30T14:10:16;2.85;;;1.25;;
57744;SDS011;58941;50.168;4.410;2024-01-30T14:12:42;1.17;;;1.00;;
57744;SDS011;58941;50.168;4.410;2024-01-30T14:15:08;2.42;;;1.35;;
57744;SDS011;58941;50.168;4.410;2024-01-30T14:17:35;1.95;;;1.00;;
57744;SDS011;58941;50.168;4.410;2024-01-30T14:20:01;1.60;;;1.02;;
57744;SDS011;58941;50.168;4.410;2024-01-30T14:22:28;2.15;;;1.10;;
57744;SDS011;58941;50.168;4.410;2024-01-30T14:24:53;2.47;;;1.08;;
57744;SDS011;58941;50.168;4.410;2024-01-30T14:27:19;2.45;;;1.00;;
57744;SDS011;58941;50.168;4.410;2024-01-30T14:29:44;1.25;;;0.93;;
57744;SDS011;58941;50.168;4.410;2024-01-30T14:32:10;1.80;;;0.98;;
57744;SDS011;58941;50.168;4.410;2024-01-30T14:34:35;1.23;;;1.08;;
57744;SDS011;58941;50.168;4.410;2024-01-30T14:37:01;2.38;;;1.00;;
57744;SDS011;58941;50.168;4.410;2024-01-30T14:39:26;2.22;;;0.88;;